createdAt,value
2023-03-08T00:00:22.458Z,7.70
2023-03-08T00:05:24.134Z,7.43
2023-03-08T00:10:25.670Z,7.53
2023-03-08T00:15:27.180Z,6.82
2023-03-08T00:20:28.642Z,7.65
2023-03-08T00:25:32.304Z,7.13
2023-03-08T00:30:33.971Z,6.88
2023-03-08T00:35:35.441Z,6.93
2023-03-08T00:40:36.907Z,6.97
2023-03-08T00:45:38.332Z,7.40
2023-03-08T00:50:39.787Z,6.75
2023-03-08T00:55:52.989Z,6.70
2023-03-08T01:00:55.040Z,6.38
2023-03-08T01:05:58.179Z,6.38
2023-03-08T01:11:00.670Z,6.63
2023-03-08T01:16:03.195Z,6.80
2023-03-08T01:21:05.101Z,6.57
2023-03-08T01:26:12.453Z,5.90
2023-03-08T01:31:17.539Z,7.20
2023-03-08T01:36:21.766Z,6.80
2023-03-08T01:41:27.387Z,7.28
2023-03-08T01:46:33.904Z,6.75
2023-03-08T01:51:42.226Z,5.93
2023-03-08T01:56:46.489Z,6.50
2023-03-08T02:01:51.209Z,5.60
2023-03-08T02:06:52.865Z,7.15
2023-03-08T02:11:58.018Z,6.72
2023-03-08T02:16:59.502Z,6.47
2023-03-08T02:22:08.961Z,7.53
2023-03-08T02:27:25.018Z,7.35
2023-03-08T02:32:26.477Z,6.40
2023-03-08T02:37:28.159Z,5.72
2023-03-08T02:42:29.627Z,5.75
2023-03-08T02:47:31.070Z,6.32
2023-03-08T02:52:32.515Z,6.35
2023-03-08T02:57:34.000Z,5.78
2023-03-08T03:02:36.005Z,6.38
2023-03-08T03:07:39.557Z,5.55
2023-03-08T03:12:41.166Z,6.30
2023-03-08T03:17:42.613Z,5.93
2023-03-08T03:22:44.907Z,5.93
2023-03-08T03:27:47.081Z,7.05
2023-03-08T03:32:48.661Z,6.20
2023-03-08T03:37:50.315Z,5.35
2023-03-08T03:42:51.799Z,5.85
2023-03-08T03:47:53.242Z,6.65
2023-03-08T03:52:54.719Z,6.00
2023-03-08T03:57:56.468Z,6.75
2023-03-08T04:02:57.973Z,6.60
2023-03-08T04:07:59.690Z,7.90
2023-03-08T04:13:01.345Z,6.45
2023-03-08T04:18:02.874Z,6.18
2023-03-08T04:23:04.314Z,6.95
2023-03-08T04:28:05.726Z,6.63
2023-03-08T04:33:07.172Z,5.32
2023-03-08T04:38:08.668Z,6.78
2023-03-08T04:43:10.126Z,6.13
2023-03-08T04:48:12.031Z,6.07
2023-03-08T04:53:13.470Z,6.68
2023-03-08T04:58:14.999Z,6.10
2023-03-08T05:03:16.788Z,6.68
2023-03-08T05:08:19.455Z,5.90
2023-03-08T05:13:21.000Z,6.53
2023-03-08T05:18:22.583Z,6.13
2023-03-08T05:23:26.300Z,6.50
2023-03-08T05:28:32.907Z,4.85
2023-03-08T05:33:35.745Z,6.68
2023-03-08T05:38:37.192Z,5.13
2023-03-08T05:43:38.689Z,5.10
2023-03-08T05:48:41.050Z,6.63
2023-03-08T05:53:42.886Z,5.85
2023-03-08T05:58:47.369Z,6.70
2023-03-08T06:03:52.061Z,5.70
2023-03-08T06:08:54.200Z,5.63
2023-03-08T06:13:55.829Z,6.82
2023-03-08T06:18:57.301Z,8.38
2023-03-08T06:23:58.735Z,7.13
2023-03-08T06:29:00.323Z,7.40
2023-03-08T06:34:01.983Z,8.05
2023-03-08T06:39:03.637Z,8.68
2023-03-08T06:44:05.243Z,9.70
2023-03-08T06:49:07.852Z,8.68
2023-03-08T06:54:09.346Z,9.07
2023-03-08T06:59:11.955Z,8.95
2023-03-08T07:04:13.425Z,8.60
2023-03-08T07:09:14.951Z,8.07
2023-03-08T07:14:16.441Z,9.30
2023-03-08T07:19:17.916Z,7.88
2023-03-08T07:24:19.365Z,10.68
2023-03-08T07:29:20.864Z,7.15
2023-03-08T07:34:22.342Z,7.85
2023-03-08T07:39:23.819Z,9.25
2023-03-08T07:44:25.284Z,8.70
2023-03-08T07:49:26.749Z,8.27
2023-03-08T07:54:28.460Z,7.90
2023-03-08T07:59:30.335Z,7.95
2023-03-08T08:04:31.820Z,8.88
2023-03-08T08:09:33.942Z,8.27
2023-03-08T08:14:35.584Z,7.60
2023-03-08T08:19:37.975Z,8.25
2023-03-08T08:24:39.437Z,7.07
2023-03-08T08:29:40.950Z,6.47
2023-03-08T08:34:42.623Z,7.90
2023-03-08T08:39:44.235Z,7.35
2023-03-08T08:44:45.760Z,8.18
2023-03-08T08:49:47.738Z,8.38
2023-03-08T08:54:49.230Z,7.43
2023-03-08T08:59:50.924Z,9.25
2023-03-08T09:04:52.465Z,8.52
2023-03-08T09:09:54.992Z,10.07
2023-03-08T09:14:56.657Z,7.63
2023-03-08T09:19:59.223Z,7.10
2023-03-08T09:25:00.727Z,7.38
2023-03-08T09:30:02.607Z,6.90
2023-03-08T09:35:05.758Z,7.32
2023-03-08T09:40:11.293Z,6.80
2023-03-08T09:45:28.231Z,7.75
2023-03-08T09:50:33.987Z,7.07
2023-03-08T09:55:43.259Z,8.57
2023-03-08T10:00:46.801Z,7.53
2023-03-08T10:05:53.767Z,6.65
2023-03-08T10:11:07.726Z,7.00
2023-03-08T10:16:27.424Z,7.63
2023-03-08T10:21:32.893Z,7.37
2023-03-08T10:26:35.242Z,9.40
2023-03-08T10:31:36.832Z,7.30
2023-03-08T10:37:08.808Z,8.05
2023-03-08T10:42:16.167Z,7.13
2023-03-08T10:47:30.132Z,11.65
2023-03-08T10:52:32.103Z,6.95
2023-03-08T10:57:34.076Z,9.10
2023-03-08T11:02:35.569Z,3.35
2023-03-08T11:07:37.508Z,1.73
2023-03-08T11:12:39.615Z,1.00
2023-03-08T11:18:06.335Z,1.00
2023-03-08T11:23:32.453Z,0.80
2023-03-08T11:28:56.772Z,1.20
2023-03-08T11:34:43.173Z,0.90
2023-03-08T11:40:26.447Z,0.90
2023-03-08T11:45:44.375Z,1.10
2023-03-08T11:50:49.105Z,1.15
2023-03-08T11:56:12.145Z,0.85
2023-03-08T12:01:24.164Z,0.90
2023-03-08T12:06:56.547Z,0.82
2023-03-08T12:11:58.410Z,0.80
2023-03-08T12:17:09.161Z,0.80
2023-03-08T12:22:31.288Z,0.93
2023-03-08T12:27:44.720Z,0.70
2023-03-08T12:32:48.362Z,0.70
2023-03-08T12:38:03.863Z,0.80
2023-03-08T12:43:14.856Z,0.82
2023-03-08T12:48:21.956Z,0.55
2023-03-08T12:53:26.480Z,0.57
2023-03-08T12:58:29.102Z,1.20
2023-03-08T13:03:42.397Z,0.60
2023-03-08T13:08:53.172Z,0.75
2023-03-08T13:14:01.564Z,0.60
2023-03-08T13:19:17.827Z,0.60
2023-03-08T13:24:37.060Z,0.43
2023-03-08T13:29:41.730Z,0.70
2023-03-08T13:34:46.376Z,0.57
2023-03-08T13:39:59.520Z,0.93
2023-03-08T13:45:16.292Z,1.27
2023-03-08T13:50:21.549Z,0.88
2023-03-08T13:55:34.865Z,0.70
2023-03-08T14:00:36.841Z,0.80
2023-03-08T14:05:43.711Z,1.50
2023-03-08T14:10:51.884Z,1.42
2023-03-08T14:16:07.821Z,0.88
2023-03-08T14:21:17.961Z,0.80
2023-03-08T14:27:02.466Z,1.10
2023-03-08T14:32:13.225Z,2.03
2023-03-08T14:37:26.035Z,1.67
2023-03-08T14:42:35.916Z,1.05
2023-03-08T14:47:37.707Z,1.70
2023-03-08T14:52:45.667Z,1.50
2023-03-08T14:57:47.864Z,0.98
2023-03-08T15:02:49.892Z,0.90
2023-03-08T15:07:52.405Z,1.55
2023-03-08T15:12:54.010Z,0.80
2023-03-08T15:17:55.608Z,0.70
2023-03-08T15:23:00.699Z,0.73
2023-03-08T15:28:02.650Z,0.43
2023-03-08T15:33:05.505Z,0.65
2023-03-08T15:38:07.423Z,0.40
2023-03-08T15:43:09.836Z,0.60
2023-03-08T15:48:17.059Z,0.70
2023-03-08T15:53:29.597Z,0.60
2023-03-08T15:58:36.093Z,1.38
2023-03-08T16:03:38.185Z,1.45
2023-03-08T16:08:40.931Z,0.93
2023-03-08T16:13:42.621Z,0.40
2023-03-08T16:18:44.680Z,1.50
2023-03-08T16:23:46.145Z,3.88
2023-03-08T16:28:48.509Z,17.02
2023-03-08T16:33:50.027Z,5.53
2023-03-08T16:38:52.234Z,2.00
2023-03-08T16:43:55.889Z,3.92
2023-03-08T16:48:57.601Z,0.50
2023-03-08T16:53:59.968Z,0.93
2023-03-08T16:59:02.224Z,0.40
2023-03-08T17:04:04.236Z,0.80
2023-03-08T17:09:06.585Z,0.65
2023-03-08T17:14:12.802Z,0.60
2023-03-08T17:19:14.522Z,0.50
2023-03-08T17:24:16.140Z,0.80
2023-03-08T17:29:18.168Z,0.77
2023-03-08T17:34:23.616Z,0.40
2023-03-08T17:39:25.686Z,0.70
2023-03-08T17:44:27.127Z,2.72
2023-03-08T17:49:28.665Z,0.90
2023-03-08T17:54:30.772Z,0.70
2023-03-08T17:59:32.191Z,0.40
2023-03-08T18:04:34.811Z,0.50
2023-03-08T18:09:36.567Z,0.52
2023-03-08T18:14:40.112Z,0.63
2023-03-08T18:19:43.067Z,0.30
2023-03-08T18:24:44.670Z,0.60
2023-03-08T18:29:46.116Z,0.40
2023-03-08T18:34:48.196Z,0.73
2023-03-08T18:39:54.510Z,0.52
2023-03-08T18:44:56.531Z,0.45
2023-03-08T18:49:58.367Z,0.35
2023-03-08T18:54:59.880Z,0.40
2023-03-08T19:00:06.314Z,0.40
2023-03-08T19:05:08.247Z,2.03
2023-03-08T19:10:14.917Z,0.38
2023-03-08T19:15:16.523Z,0.60
2023-03-08T19:20:18.061Z,0.32
2023-03-08T19:25:20.869Z,0.70
2023-03-08T19:30:24.338Z,0.80
2023-03-08T19:35:25.791Z,0.63
2023-03-08T19:40:27.274Z,1.05
2023-03-08T19:45:28.789Z,0.85
2023-03-08T19:50:30.234Z,0.68
2023-03-08T19:55:31.787Z,0.88
2023-03-08T20:00:33.241Z,0.70
2023-03-08T20:05:48.478Z,1.02
2023-03-08T20:10:50.261Z,0.73
2023-03-08T20:15:51.797Z,1.00
2023-03-08T20:20:53.320Z,0.80
2023-03-08T20:25:54.822Z,0.60
2023-03-08T20:30:56.345Z,0.82
2023-03-08T20:35:59.298Z,0.90
2023-03-08T20:41:12.092Z,0.82
2023-03-08T20:46:16.366Z,1.70
2023-03-08T20:51:20.244Z,1.10
2023-03-08T20:56:23.932Z,1.33
2023-03-08T21:01:31.453Z,1.00
2023-03-08T21:06:34.038Z,1.17
2023-03-08T21:11:35.712Z,1.10
2023-03-08T21:16:37.847Z,0.80
2023-03-08T21:21:42.901Z,0.85
2023-03-08T21:26:45.719Z,1.15
2023-03-08T21:31:52.529Z,1.27
2023-03-08T21:36:54.066Z,1.38
2023-03-08T21:41:57.127Z,1.20
2023-03-08T21:46:59.036Z,1.50
2023-03-08T21:52:01.857Z,1.45
2023-03-08T21:57:03.768Z,2.78
2023-03-08T22:02:05.552Z,1.70
2023-03-08T22:07:07.408Z,1.52
2023-03-08T22:12:08.935Z,1.23
2023-03-08T22:17:10.375Z,1.02
2023-03-08T22:22:11.871Z,1.40
2023-03-08T22:27:14.240Z,1.52
2023-03-08T22:32:16.440Z,1.60
2023-03-08T22:37:17.948Z,1.20
2023-03-08T22:42:19.404Z,1.50
2023-03-08T22:47:21.058Z,1.33
2023-03-08T22:52:23.229Z,1.73
2023-03-08T22:57:25.252Z,1.25
2023-03-08T23:02:28.445Z,1.63
2023-03-08T23:07:30.060Z,1.23
2023-03-08T23:12:31.497Z,1.48
2023-03-08T23:17:33.181Z,1.05
2023-03-08T23:22:34.834Z,1.05
2023-03-08T23:27:36.884Z,1.20
2023-03-08T23:32:38.425Z,1.35
2023-03-08T23:37:40.458Z,1.00
2023-03-08T23:42:42.217Z,1.23
2023-03-08T23:47:43.741Z,1.02
2023-03-08T23:52:45.901Z,1.30
2023-03-08T23:57:47.590Z,0.57
